x

Big Bay, Mi (bigm4) Weather Station

2:40am - Tue 17th Jan 2017 All times are CST. -6 hours from GMT.

  • Wind
    1mph, 2mph gusts
  • Air Temp 23°f
  • Sea Pressure 1014.9mb
  • Big Bay, Mi
  • Big Bay, Mi

More Historic Weather Station data

Upgrade to MSW Pro to gain access to the past 30 days of data for over 8000 Wavebouys and Weather Stations around the globe.

Join Pro

Comparision Forecast

View Surf forecast
   
Tue 01/17 2:40am 1 2 mph 1014.9mb 23f
2:30am 2
mph
1014.9mb 24f
2:20am 2
mph
1014.9mb 24f
2:10am  -  1 mph 1014.9mb 24f
2:00am  -  3 mph 1014.9mb 24f
1:40am  -  1 mph 1015.2mb 23f
1:30am  -  mph 1015.2mb 23f
1:20am  -  mph 1015.2mb 24f
1:10am  -  1 mph 1014.9mb 24f
1:00am  -  3 mph 1014.9mb 23f
12:40am 1 3 mph 1014.9mb 22f
12:30am 1 2 mph 1014.9mb 23f
12:20am  -  2 mph 1015.2mb 23f
12:10am  -  1 mph 1015.2mb 24f
12:00am 1 5 mph 1015.2mb 24f
Mon 01/16 11:40pm 2 3 mph 1015.6mb 23f
11:30pm 2 3 mph 1015.6mb 24f
11:20pm 2 3 mph 1015.6mb 23f
11:10pm  -  1 mph 1015.6mb 23f
11:00pm  -  1 mph 1015.9mb 23f
10:40pm 2 3 mph 1015.9mb 23f
10:30pm 1 2 mph 1015.9mb 23f
10:20pm 2
mph
1016.3mb 23f
10:10pm 1 2 mph 1016.3mb 24f
10:00pm 1 2 mph 1016.3mb 23f
9:40pm  -  1 mph 1016.6mb 24f
9:30pm  -  3 mph 1016.6mb 23f
9:20pm  -  mph 1016.6mb 24f
9:10pm  -  1 mph 1016.6mb 24f
9:00pm  -  2 mph 1016.6mb 24f
8:40pm  -  2 mph 1016.9mb 24f
8:30pm 1 2 mph 1017.3mb 24f
8:20pm 2
mph
1017.3mb 24f
8:10pm 1 2 mph 1017.6mb 24f
8:00pm 1 3 mph 1017.6mb 24f
7:40pm 3
mph
1017.9mb 25f
7:30pm 1 2 mph 1017.9mb 25f
7:20pm 1
mph
1018.3mb 25f
7:10pm 1 2 mph 1018.3mb 25f
7:00pm 1 2 mph 1018.3mb 25f
6:40pm 1 2 mph 1018.6mb 26f
6:30pm 2
mph
1018.6mb 26f
6:20pm 1 2 mph 1018.3mb 26f
6:10pm 2
mph
1018.3mb 26f
6:00pm 1 2 mph 1018.3mb 26f
5:40pm  -  1 mph 1018.6mb 26f
5:30pm 1 2 mph 1018.6mb 26f
5:20pm 2 3 mph 1019mb 26f
5:10pm  -  1 mph 1018.6mb 26f
5:00pm  -  1 mph 1019mb 27f
4:40pm  -  1 mph 1018.6mb 28f
4:30pm  -  2 mph 1018.6mb 28f
4:20pm  -  3 mph 1018.6mb 29f
4:10pm 2 3 mph 1019mb 29f
4:00pm  -  2 mph 1018.6mb 31f
3:40pm 2 6 mph 1018.6mb 34f
3:30pm 2 6 mph 1018.6mb 34f
3:20pm 5 7 mph 1018.6mb 35f
3:10pm 5 7 mph 1018.6mb 36f
3:00pm  -  5 mph 1019mb 38f
2:40pm 2 6 mph 1018.6mb 39f
2:30pm 5 6 mph 1019mb 38f
2:20pm 5 7 mph 1018.6mb 38f
2:10pm 3 7 mph 1018.6mb 38f
2:00pm 3 6 mph 1018.6mb 38f
1:40pm 9 15 mph 1018.3mb 39f
1:30pm 5 8 mph 1018.3mb 37f
1:20pm 6 11 mph 1018.3mb 39f
1:10pm 6 10 mph 1018.3mb 40f
1:00pm 2 8 mph 1018.6mb 41f
12:40pm 2 9 mph 1018.6mb 44f
12:30pm 5 9 mph 1019mb 43f
12:20pm 7 9 mph 1018.6mb 41f
12:10pm 7 11 mph 1019mb 40f
12:00pm 6 10 mph 1019.3mb 42f
11:40am 6 9 mph 1019.3mb 42f
11:30am 6 10 mph 1019.3mb 42f
11:20am 5 11 mph 1019.6mb 42f
11:10am 5 11 mph 1019.6mb 41f
11:00am 5 11 mph 1019.6mb 40f
10:40am 3 6 mph 1020mb 40f
10:30am 2 6 mph 1020mb 39f
10:20am 3 8 mph 1020.3mb 39f
10:10am 2 3 mph 1020.3mb 36f
10:00am 2 3 mph 1020.3mb 35f
9:40am 2 3 mph 1020.7mb 33f
9:30am 1 2 mph 1020.3mb 33f
9:20am 2
mph
1020.7mb 31f
9:10am  -  1 mph 1020.3mb 30f
9:00am  -  1 mph 1020.3mb 29f
8:40am  -  1 mph 1020mb 28f
8:30am 1 3 mph 1020mb 27f
8:20am 1 2 mph 1019.6mb 25f
8:10am 2 3 mph 1019.3mb 25f
8:00am 2 5 mph 1019mb 25f
7:40am 2 3 mph 1019mb 24f
7:30am 2 3 mph 1018.6mb 26f
7:20am 1 3 mph 1018.6mb 27f
7:10am 2 5 mph 1018.3mb 30f
7:00am 2 3 mph 1018.3mb 28f
6:40am 2 7 mph 1018.3mb 30f
6:30am 3 7 mph 1018.3mb 33f
6:20am 2 9 mph 1018.3mb 33f
6:10am 5 13 mph 1018.3mb 33f
6:00am 5 13 mph 1018.3mb 33f
5:40am 8 14 mph 1017.9mb 33f
5:30am 9 15 mph 1018.3mb 33f
5:20am 6 11 mph 1018.3mb 33f
5:10am 6 13 mph 1018.6mb 33f
5:00am 6 14 mph 1018.3mb 33f
4:40am 6 13 mph 1018.3mb 33f
4:30am 5 14 mph 1018.3mb 34f
4:20am 6 13 mph 1017.9mb 34f
4:10am 7 18 mph 1018.3mb 34f
4:00am 5 13 mph 1018.3mb 34f
3:40am 3 14 mph 1018.3mb 33f
3:30am 6 18 mph 1017.9mb 33f
3:20am 8 15 mph 1017.9mb 33f
3:10am 5 15 mph 1017.9mb 34f
3:00am 6 16 mph 1017.9mb 34f
2:50am 8 21 mph 1017.9mb 34f
2:40am 3 16 mph 1017.9mb 34f
2:30am 6 13 mph 1017.9mb 34f
2:20am 2 11 mph 1017.9mb 34f
2:10am 5 11 mph 1017.9mb 35f
2:00am 5 13 mph 1017.6mb 34f
1:50am 5 10 mph 1017.6mb 34f
1:40am 6 11 mph 1017.6mb 35f
1:30am 5 10 mph 1017.6mb 35f
1:20am 2 7 mph 1017.6mb 34f
1:10am 5 7 mph 1017.6mb 34f
1:00am 2 9 mph 1017.6mb 35f
12:50am 5 10 mph 1017.6mb 35f
12:40am 5 10 mph 1017.6mb 35f
12:30am 1 9 mph 1017.6mb 35f
12:20am 1 9 mph 1017.6mb 34f
12:10am 5 8 mph 1017.6mb 35f
12:00am 3 7 mph 1017.9mb 35f
Sun 01/15 11:50pm 5 8 mph 1017.9mb 35f
11:40pm 5 10 mph 1017.6mb 35f
11:30pm 2 11 mph 1017.6mb 35f
11:20pm 5 13 mph 1017.6mb 35f
11:10pm 6 14 mph 1017.6mb 35f
11:00pm 6 11 mph 1017.6mb 35f
10:50pm 6 13 mph 1017.6mb 35f
10:40pm 6 11 mph 1017.6mb 35f
10:30pm 5 14 mph 1017.6mb 35f
10:20pm 3 8 mph 1017.6mb 35f
10:10pm 5 8 mph 1017.6mb 35f
10:00pm 3 9 mph 1017.9mb 35f
9:50pm 2 6 mph 1017.6mb 35f
9:40pm 5 11 mph 1017.6mb 35f
9:30pm 3 13 mph 1017.6mb 35f
9:20pm 6 13 mph 1017.3mb 35f
9:10pm 3 10 mph 1017.3mb 35f
9:00pm 3 14 mph 1017.3mb 35f
8:50pm 5 15 mph 1017.3mb 35f
8:40pm 8 14 mph 1017.3mb 35f
8:30pm 3 13 mph 1017.3mb 35f
8:20pm 5 15 mph 1017.3mb 35f
8:10pm 9 15 mph 1017.3mb 35f
8:00pm 7 13 mph 1017.3mb 35f
7:50pm 8 15 mph 1016.9mb 35f
7:40pm 8 14 mph 1017.3mb 35f
7:30pm 6 10 mph 1017.3mb 35f
7:20pm 5 14 mph 1017.3mb 35f
7:10pm 5 11 mph 1017.6mb 35f
7:00pm 3 11 mph 1017.3mb 35f
6:50pm 5 15 mph 1017.3mb 35f
6:40pm 3 8 mph 1017.6mb 35f
6:30pm 6 9 mph 1017.6mb 34f
6:20pm 2 10 mph 1017.9mb 34f
6:10pm 7 14 mph 1017.9mb 35f
6:00pm 6 13 mph 1017.6mb 34f
5:50pm 5 11 mph 1018.3mb 34f
5:40pm 6 13 mph 1018.6mb 34f
5:30pm 6 11 mph 1018.6mb 34f
5:20pm 5 10 mph 1018.6mb 34f
5:10pm 5 11 mph 1018.6mb 34f
5:00pm 6 11 mph 1018.6mb 34f
4:50pm 3 8 mph 1018.6mb 33f
4:40pm 5 9 mph 1018.6mb 34f
4:30pm 5 7 mph 1019mb 34f
4:20pm 3 7 mph 1019mb 35f
4:10pm 5 7 mph 1019mb 35f
4:00pm 5 9 mph 1019mb 36f
3:50pm 2 5 mph 1019.3mb 38f
3:40pm 5 13 mph 1019.3mb 38f
3:30pm 7 13 mph 1019.3mb 39f
3:20pm 7 11 mph 1019.3mb 39f
3:10pm 6 10 mph 1019.3mb 40f
3:00pm 6 10 mph 1019.3mb 40f
2:50pm 3 8 mph 1019.3mb 40f
2:40pm 5 9 mph 1019.6mb 40f
2:30pm 5 9 mph 1019.6mb 39f
2:20pm 5 10 mph 1020mb 39f
2:10pm 7 10 mph 1020mb 39f
2:00pm 5 10 mph 1020mb 40f
1:50pm 5 11 mph 1020mb 39f
1:40pm 7 11 mph 1020mb 39f
1:30pm 6 11 mph 1020.3mb 38f
1:20pm 6 10 mph 1020.3mb 38f
1:10pm 6 9 mph 1020.7mb 38f
1:00pm 7 9 mph 1020.7mb 38f
12:50pm 6 10 mph 1020.7mb 38f
12:40pm 6 10 mph 1021mb 38f
12:30pm  -  11 mph 1021.3mb 38f
12:20pm 3 8 mph 1021.3mb 38f
12:10pm 1 8 mph 1021.3mb 37f
12:00pm 3 10 mph 1021.7mb 35f
11:50am 5 13 mph 1022mb 35f
11:40am 3 8 mph 1022mb 34f
11:30am 2 6 mph 1022.4mb 35f
11:20am 2 6 mph 1022.7mb 35f
11:10am 2 9 mph 1022.7mb 32f
11:00am 5 9 mph 1022.7mb 32f
10:50am 7 11 mph 1022.7mb 31f
10:40am 3 11 mph 1023mb 30f
10:30am 6 10 mph 1023.4mb 31f
10:20am 3 8 mph 1023.7mb 31f
10:10am 2 10 mph 1023.7mb 30f
10:00am  -  2 mph 1023.7mb 32f
9:50am  -  mph 1023.7mb 30f
9:40am  -  3 mph 1023.7mb 27f
9:30am 2 3 mph 1024mb 24f
9:20am  -  2 mph 1023.7mb 23f
9:10am  -  3 mph 1023.7mb 20f
9:00am 1 2 mph 1023.7mb 17f
8:50am  -  2 mph 1023.7mb 15f
8:40am  -  3 mph 1023.7mb 13f
8:30am 2 3 mph 1024mb 13f
8:20am 2 3 mph 1023.7mb 11f
8:10am 1 3 mph 1023.7mb 10f
8:00am  -  2 mph 1023.7mb 8f
7:40am  -  1 mph 1024mb 7f
7:30am 1 2 mph 1024mb 6f
7:20am 1 2 mph 1024mb 7f
7:10am 1 2 mph 1024mb 7f
7:00am 1 2 mph 1024mb 7f
6:50am  -  2 mph 1024.4mb 8f
6:40am 2
mph
1024mb 8f
6:30am 2 3 mph 1024mb 8f
6:20am 2 5 mph 1024.4mb 8f
6:10am 3 6 mph 1024.7mb 8f
6:00am 3
mph
1024.7mb 8f
5:50am 1 2 mph 1024.7mb 9f
5:40am 2 5 mph 1025.1mb 9f
5:30am 3
mph
1025.1mb 10f
5:20am 1 2 mph 1025.1mb 11f
5:10am 2 3 mph 1025.1mb 11f
5:00am 3
mph
1025.4mb 13f
4:50am 3
mph
1025.4mb 11f
4:40am 2 3 mph 1025.4mb 12f
4:30am 3 5 mph 1025.7mb 12f
4:20am 3 5 mph 1025.7mb 12f
4:10am 3 5 mph 1025.7mb 12f
4:00am 3 5 mph 1025.7mb 12f
3:50am 3 5 mph 1026.1mb 13f
3:40am 3 7 mph 1025.7mb 18f
3:30am 5 6 mph 1025.7mb 17f
3:20am 5 7 mph 1025.7mb 18f
3:10am 5 7 mph 1026.1mb 18f
3:00am 3 7 mph 1026.1mb 20f
2:50am 5 7 mph 1026.1mb 20f
2:40am 5 9 mph 1026.1mb 21f
2:30am 5 8 mph 1026.1mb 21f
2:20am 6 9 mph 1026.1mb 21f
2:10am 6 10 mph 1026.1mb 21f
2:00am 6 10 mph 1026.1mb 20f
1:50am 3 7 mph 1026.1mb 20f
1:40am 5 8 mph 1026.1mb 18f
1:30am 5 7 mph 1026.1mb 18f
1:20am 3 7 mph 1026.1mb 20f
1:10am 2 8 mph 1026.1mb 20f
1:00am 3 7 mph 1026.1mb 20f
12:50am 5 8 mph 1026.1mb 20f
12:40am 3 6 mph 1026.1mb 17f
12:30am 3 6 mph 1026.1mb 18f
12:20am 2 7 mph 1026.1mb 18f
12:10am 3 7 mph 1026.4mb 19f
12:00am 2 8 mph 1026.4mb 20f
Sat 01/14 11:50pm 3 8 mph 1026.8mb 21f
11:40pm 3 7 mph 1026.8mb 20f
11:30pm 3 8 mph 1026.8mb 20f
11:20pm 3 9 mph 1026.8mb 20f
11:10pm 3 7 mph 1026.8mb 21f
11:00pm 3 8 mph 1026.8mb 21f
10:50pm 5 10 mph 1026.8mb 21f
10:40pm 3 9 mph 1026.8mb 21f
10:30pm 5 9 mph 1026.8mb 21f
10:20pm 6 10 mph 1026.8mb 21f
10:10pm 5 9 mph 1026.8mb 21f
10:00pm 6 10 mph 1026.8mb 21f
9:50pm 3 10 mph 1026.8mb 20f
9:40pm 7 13 mph 1026.8mb 20f
9:30pm 5 10 mph 1026.8mb 20f
9:20pm 5 9 mph 1026.8mb 20f
9:10pm 5 9 mph 1026.8mb 19f
9:00pm 7 10 mph 1026.8mb 19f
8:50pm 7 11 mph 1026.8mb 19f
8:40pm 6 10 mph 1026.8mb 19f
8:30pm 5 11 mph 1026.4mb 19f
8:20pm 5 10 mph 1026.4mb 19f
8:10pm 5 11 mph 1026.4mb 19f
8:00pm 5 15 mph 1026.4mb 19f
7:50pm 7 14 mph 1026.4mb 19f
7:40pm 5 14 mph 1026.4mb 19f
7:30pm 7 14 mph 1026.4mb 19f
7:20pm 2 10 mph 1026.4mb 19f
7:10pm 5 9 mph 1026.4mb 18f
7:00pm 3 9 mph 1026.4mb 19f
6:50pm 2 7 mph 1026.4mb 18f
6:40pm 2 6 mph 1026.4mb 15f
6:30pm  -  3 mph 1026.4mb 15f
6:20pm  -  3 mph 1026.4mb 16f
6:10pm  -  2 mph 1026.4mb 15f
6:00pm  -  3 mph 1026.4mb 16f
5:50pm 1 2 mph 1026.4mb 16f
5:40pm  -  3 mph 1026.1mb 16f
5:30pm  -  2 mph 1026.4mb 17f
5:20pm  -  3 mph 1026.1mb 18f
5:10pm  -  1 mph 1026.4mb 18f
5:00pm  -  3 mph 1026.4mb 20f
4:50pm  -  3 mph 1026.4mb 20f
4:40pm 1 5 mph 1026.4mb 21f
4:30pm 3 8 mph 1026.4mb 22f
4:20pm 1 11 mph 1026.1mb 22f
4:10pm 3 14 mph 1026.1mb 22f
4:00pm 3 10 mph 1025.7mb 22f
3:50pm 2 10 mph 1025.7mb 23f
3:40pm 3 11 mph 1025.7mb 24f
3:30pm 6 15 mph 1025.7mb 24f
3:20pm 6 14 mph 1025.4mb 25f
3:10pm 5 13 mph 1025.7mb 25f
3:00pm 5 14 mph 1025.7mb 25f
2:50pm 7 14 mph 1025.4mb 24f
2:40pm 7 14 mph 1025.4mb 25f
2:30pm 6 11 mph 1025.4mb 25f
2:20pm 6 16 mph 1025.4mb 24f
2:10pm 8 14 mph 1025.4mb 24f
2:00pm 7 17 mph 1025.4mb 24f
1:50pm 6 18 mph 1025.4mb 24f
1:40pm 7 17 mph 1025.4mb 23f
1:30pm 7 16 mph 1025.7mb 24f
1:20pm 7 15 mph 1025.7mb 24f
1:10pm 8 17 mph 1025.4mb 23f
1:00pm 9 18 mph 1025.7mb 23f
12:50pm 9 16 mph 1025.7mb 23f
12:40pm 8 20 mph 1026.1mb 23f
12:30pm 11 21 mph 1025.7mb 23f
12:20pm 5 17 mph 1025.7mb 23f
12:10pm 7 18 mph 1026.1mb 23f
12:00pm 7 15 mph 1026.1mb 23f
11:50am 7 13 mph 1026.1mb 23f
11:40am 7 16 mph 1026.1mb 23f
11:30am 10 22 mph 1026.4mb 22f
11:20am 9 18 mph 1026.1mb 22f
11:10am 9 21 mph 1026.1mb 21f
11:00am 13 18 mph 1026.4mb 22f
10:50am 9 22 mph 1026.8mb 22f
10:40am 8 16 mph 1026.8mb 21f
10:30am 11 22 mph 1027.1mb 21f
10:20am 14 25 mph 1026.8mb 20f
10:10am 10 20 mph 1026.8mb 20f
10:00am 11 22 mph 1026.8mb 21f
9:50am 13 21 mph 1027.1mb 21f
9:40am 9 17 mph 1026.8mb 21f
9:30am 9 21 mph 1026.8mb 21f
9:20am 8 17 mph 1026.8mb 21f
9:10am 9 18 mph 1026.8mb 20f
9:00am 8 15 mph 1026.8mb 20f
8:50am 6 9 mph 1027.1mb 19f
8:40am 5 9 mph 1027.1mb 19f
8:30am 5 11 mph 1026.8mb 19f
8:20am 3 8 mph 1026.8mb 18f
8:10am 6 13 mph 1026.8mb 18f
8:00am 6 10 mph 1026.8mb 17f
7:50am 6 14 mph 1026.8mb 17f
7:40am 5 13 mph 1026.8mb 17f
7:30am 8 15 mph 1026.8mb 18f
7:20am 6 9 mph 1026.8mb 18f
7:10am 5 8 mph 1027.1mb 18f
7:00am 5 8 mph 1027.1mb 18f
6:50am 5 11 mph 1027.1mb 18f
6:40am 5 10 mph 1027.4mb 18f
6:30am 5 8 mph 1027.4mb 19f
6:20am 5 11 mph 1027.4mb 19f
6:10am 2 7 mph 1027.8mb 19f
6:00am 5 7 mph 1027.8mb 18f
5:50am 3 9 mph 1027.8mb 18f
5:40am 3 8 mph 1028.1mb 18f
5:30am 5 11 mph 1028.1mb 18f
5:20am 3 13 mph 1028.1mb 18f
5:10am 3 11 mph 1028.4mb 18f
5:00am 2 9 mph 1028.4mb 18f
4:50am 3 7 mph 1028.8mb 18f
4:40am 5 8 mph 1028.8mb 18f
4:30am 5 9 mph 1028.8mb 18f
4:20am 5 13 mph 1028.8mb 18f
4:10am 7 14 mph 1028.8mb 18f
4:00am 2 13 mph 1029.1mb 18f
3:50am 1 11 mph 1029.1mb 18f
3:40am 5 10 mph 1029.1mb 18f
3:30am 3 7 mph 1029.1mb 17f
3:20am 3 7 mph 1029.5mb 16f
3:10am 2 5 mph 1029.8mb 15f
3:00am 2 5 mph 1030.1mb 15f
2:50am 3 6 mph 1030.1mb 15f
2:40am  -  7 mph 1030.5mb 15f
2:30am 3 7 mph 1030.5mb 15f
2:20am 5 7 mph 1030.5mb 14f
2:10am 3 5 mph 1030.8mb 14f
2:00am 2 7 mph 1030.8mb 14f
1:50am 3 6 mph 1030.8mb 14f
1:40am 3 8 mph 1031.2mb 14f
1:30am 2 9 mph 1031.2mb 14f
1:20am 6 8 mph 1031.2mb 14f
1:10am 6 10 mph 1031.5mb 14f
1:00am 6 10 mph 1031.5mb 14f
12:50am 5 9 mph 1032.2mb 14f
12:40am 3 8 mph 1031.8mb 14f
12:30am 6 9 mph 1031.8mb 14f
12:20am 6 13 mph 1031.8mb 14f
12:10am 5 10 mph 1032.2mb 13f
12:00am 6 10 mph 1032.2mb 13f
Fri 01/13 11:50pm 3 8 mph 1032.5mb 13f
11:40pm 2 9 mph 1032.8mb 12f
11:30pm 6 8 mph 1032.8mb 12f
11:20pm 3 6 mph 1033.5mb 12f
11:10pm 2 5 mph 1033.5mb 12f
11:00pm 2 5 mph 1033.5mb 12f
10:50pm 3 9 mph 1033.9mb 12f
10:40pm 5 9 mph 1033.9mb 12f
10:30pm 3 7 mph 1034.2mb 11f
10:20pm 6 9 mph 1034.5mb 11f
10:10pm 1 7 mph 1034.5mb 11f
10:00pm 2 8 mph 1034.9mb 10f
9:50pm 6 9 mph 1034.9mb 9f
9:40pm 6 10 mph 1035.2mb 8f
9:30pm 5 8 mph 1035.6mb 6f
9:20pm 3 6 mph 1035.6mb 4f
9:10pm 3 6 mph 1035.6mb 3f
9:00pm 3 6 mph 1035.6mb 3f
8:50pm 2 5 mph 1035.9mb 2f
8:40pm 2 3 mph 1035.9mb 1f
8:30pm 2 5 mph 1036.2mb 1f
8:20pm 2 5 mph 1036.6mb 1f
8:10pm 2 5 mph 1036.9mb -
8:00pm 2
mph
1036.9mb -
7:50pm 2 3 mph 1036.9mb -1f
7:40pm 2 3 mph 1036.9mb -1f
7:30pm 3 5 mph 1037.3mb -3f
7:20pm 3 6 mph 1037.3mb -4f
7:10pm 3 5 mph 1037.6mb -5f
7:00pm 2 5 mph 1037.6mb -4f
6:50pm 3 5 mph 1037.6mb -4f
6:40pm 2 3 mph 1037.9mb -4f
6:30pm 2
mph
1038.3mb -4f
6:20pm 2
mph
1038.3mb -3f
6:10pm 2
mph
1038.6mb -2f
6:00pm 2
mph
1038.6mb -1f
5:40pm 2 3 mph 1038.9mb -
5:30pm 2 3 mph 1038.9mb -
5:20pm 2
mph
1038.6mb 1f
5:10pm 1 2 mph 1038.6mb 1f
5:00pm  -  mph 1038.9mb 2f
4:50pm  -  mph 1038.9mb 3f
4:40pm  -  mph 1038.9mb 5f
4:30pm  -  mph 1039.3mb 6f
4:20pm  -  mph 1039.3mb 7f
4:10pm  -  1 mph 1039.3mb 9f
4:00pm  -  1 mph 1039.6mb 10f
3:50pm  -  3 mph 1039.6mb 13f
3:40pm 2 6 mph 1039.6mb 14f
3:30pm 2 7 mph 1040mb 14f
3:20pm 2 7 mph 1040mb 14f
3:10pm 3 7 mph 1039.6mb 14f
3:00pm 3 7 mph 1039.6mb 14f
2:50pm 1 7 mph 1039.6mb 15f
2:40pm 5 9 mph 1039.6mb 14f
2:30pm 3 9 mph 1039.6mb 14f
2:20pm 3 7 mph 1039.6mb 14f
2:10pm 5 8 mph 1039.6mb 13f
2:00pm 2 9 mph 1039.6mb 14f
1:50pm 5 9 mph 1039.6mb 14f
1:40pm 3 7 mph 1039.6mb 15f
1:30pm 3 9 mph 1039.6mb 13f
1:20pm 6 7 mph 1039.6mb 14f
1:10pm 3 8 mph 1040mb 13f
1:00pm 2 7 mph 1040mb 13f
12:50pm 3 11 mph 1039.6mb 13f
12:40pm 8 13 mph 1039.6mb 12f
12:30pm 8 13 mph 1040mb 12f
12:20pm 7 13 mph 1040mb 12f
12:10pm 7 10 mph 1040mb 11f
12:00pm 7 13 mph 1040mb 12f
11:50am 5 9 mph 1040.3mb 11f
11:40am 5 8 mph 1040mb 10f
11:30am 6 10 mph 1040.3mb 10f
11:20am 6 9 mph 1040.3mb 10f
11:10am 7 13 mph 1040.3mb 10f
11:00am 5 9 mph 1040.3mb 10f
10:50am 5 8 mph 1040.3mb 10f
10:40am 5 11 mph 1040.3mb 10f
10:30am 2 11 mph 1040mb 10f
10:20am 5 8 mph 1040mb 9f
10:10am 5 8 mph 1040mb 9f
10:00am 3 7 mph 1040mb 9f
9:50am 5 7 mph 1040mb 9f
9:40am 2 8 mph 1040mb 9f
9:30am 6 8 mph 1039.6mb 9f
9:20am 5 8 mph 1039.6mb 8f